sensor_id;sensor_type;location;lat;lon;timestamp;pressure;altitude;pressure_sealevel;temperature;humidity
65666;BME280;52365;47.464;18.976;2022-10-16T00:00:08;100248.50;;;18.08;52.21
65666;BME280;52365;47.464;18.976;2022-10-16T00:00:44;100241.09;;;18.20;52.62
65666;BME280;52365;47.464;18.976;2022-10-16T00:01:23;100252.25;;;18.22;52.55
65666;BME280;52365;47.464;18.976;2022-10-16T00:01:59;100251.03;;;18.28;52.31
65666;BME280;52365;47.464;18.976;2022-10-16T00:02:35;100246.53;;;18.25;52.46
65666;BME280;52365;47.464;18.976;2022-10-16T00:03:11;100247.03;;;18.29;52.83
65666;BME280;52365;47.464;18.976;2022-10-16T00:03:48;100244.09;;;18.27;52.72
65666;BME280;52365;47.464;18.976;2022-10-16T00:04:25;100247.53;;;18.33;52.51
65666;BME280;52365;47.464;18.976;2022-10-16T00:05:01;100247.06;;;18.41;52.15
65666;BME280;52365;47.464;18.976;2022-10-16T00:05:42;100241.13;;;18.53;52.08
65666;BME280;52365;47.464;18.976;2022-10-16T00:06:20;100247.56;;;18.45;52.18
65666;BME280;52365;47.464;18.976;2022-10-16T00:06:56;100241.09;;;18.42;52.12
65666;BME280;52365;47.464;18.976;2022-10-16T00:07:32;100245.06;;;18.47;52.17
65666;BME280;52365;47.464;18.976;2022-10-16T00:08:10;100248.28;;;18.34;52.34
65666;BME280;52365;47.464;18.976;2022-10-16T00:08:47;100242.84;;;18.28;52.42
65666;BME280;52365;47.464;18.976;2022-10-16T00:09:23;100245.31;;;18.32;52.64
65666;BME280;52365;47.464;18.976;2022-10-16T00:09:59;100243.34;;;18.27;53.23
65666;BME280;52365;47.464;18.976;2022-10-16T00:10:36;100240.34;;;18.25;53.26
65666;BME280;52365;47.464;18.976;2022-10-16T00:11:20;100243.56;;;18.12;51.99
65666;BME280;52365;47.464;18.976;2022-10-16T00:11:56;100242.81;;;18.06;51.89
65666;BME280;52365;47.464;18.976;2022-10-16T00:12:32;100247.50;;;18.00;52.32
65666;BME280;52365;47.464;18.976;2022-10-16T00:13:08;100244.00;;;17.82;52.50
65666;BME280;52365;47.464;18.976;2022-10-16T00:13:46;100256.03;;;17.65;52.75
65666;BME280;52365;47.464;18.976;2022-10-16T00:14:23;100240.69;;;17.61;53.00
65666;BME280;52365;47.464;18.976;2022-10-16T00:14:59;100240.00;;;17.78;52.55
65666;BME280;52365;47.464;18.976;2022-10-16T00:15:36;100238.84;;;18.01;51.93
65666;BME280;52365;47.464;18.976;2022-10-16T00:16:13;100241.56;;;18.12;51.42
65666;BME280;52365;47.464;18.976;2022-10-16T00:16:49;100242.06;;;18.17;51.59
65666;BME280;52365;47.464;18.976;2022-10-16T00:17:25;100250.00;;;18.15;51.78
65666;BME280;52365;47.464;18.976;2022-10-16T00:18:04;100248.00;;;18.04;51.13
65666;BME280;52365;47.464;18.976;2022-10-16T00:18:41;100244.56;;;18.09;50.64
65666;BME280;52365;47.464;18.976;2022-10-16T00:19:17;100234.88;;;18.02;50.99
65666;BME280;52365;47.464;18.976;2022-10-16T00:19:53;100242.78;;;17.95;51.46
65666;BME280;52365;47.464;18.976;2022-10-16T00:20:29;100243.31;;;18.04;51.33
65666;BME280;52365;47.464;18.976;2022-10-16T00:21:13;100254.50;;;18.23;51.03
65666;BME280;52365;47.464;18.976;2022-10-16T00:21:49;100245.06;;;18.24;51.03
65666;BME280;52365;47.464;18.976;2022-10-16T00:22:25;100247.78;;;18.19;51.00
65666;BME280;52365;47.464;18.976;2022-10-16T00:23:02;100249.69;;;17.79;51.67
65666;BME280;52365;47.464;18.976;2022-10-16T00:23:39;100254.59;;;17.69;51.77
65666;BME280;52365;47.464;18.976;2022-10-16T00:24:15;100250.44;;;17.91;51.53
65666;BME280;52365;47.464;18.976;2022-10-16T00:24:51;100254.47;;;18.06;51.40
65666;BME280;52365;47.464;18.976;2022-10-16T00:25:27;100247.03;;;18.07;51.08
65666;BME280;52365;47.464;18.976;2022-10-16T00:26:09;100250.25;;;18.17;50.94
65666;BME280;52365;47.464;18.976;2022-10-16T00:26:49;100249.28;;;18.20;50.75
65666;BME280;52365;47.464;18.976;2022-10-16T00:27:25;100245.75;;;17.97;51.03
65666;BME280;52365;47.464;18.976;2022-10-16T00:28:01;100249.97;;;17.98;50.99
65666;BME280;52365;47.464;18.976;2022-10-16T00:28:38;100252.25;;;18.10;50.86
65666;BME280;52365;47.464;18.976;2022-10-16T00:29:14;100255.19;;;18.12;50.84
65666;BME280;52365;47.464;18.976;2022-10-16T00:29:51;100253.00;;;18.22;50.57
65666;BME280;52365;47.464;18.976;2022-10-16T00:30:28;100254.75;;;18.31;50.64
65666;BME280;52365;47.464;18.976;2022-10-16T00:31:06;100257.97;;;18.29;50.66
65666;BME280;52365;47.464;18.976;2022-10-16T00:31:43;100259.94;;;18.23;51.46
65666;BME280;52365;47.464;18.976;2022-10-16T00:32:19;100253.94;;;18.02;52.14
65666;BME280;52365;47.464;18.976;2022-10-16T00:32:56;100265.34;;;17.95;52.01
65666;BME280;52365;47.464;18.976;2022-10-16T00:33:33;100265.09;;;17.87;51.89
65666;BME280;52365;47.464;18.976;2022-10-16T00:34:09;100254.19;;;17.99;51.59
65666;BME280;52365;47.464;18.976;2022-10-16T00:34:45;100259.12;;;17.95;51.38
65666;BME280;52365;47.464;18.976;2022-10-16T00:35:22;100261.63;;;18.04;51.16
65666;BME280;52365;47.464;18.976;2022-10-16T00:35:59;100260.87;;;17.92;51.50
65666;BME280;52365;47.464;18.976;2022-10-16T00:36:35;100261.84;;;17.95;51.35
65666;BME280;52365;47.464;18.976;2022-10-16T00:37:11;100262.38;;;17.99;51.21
65666;BME280;52365;47.464;18.976;2022-10-16T00:37:48;100266.63;;;18.05;50.94
65666;BME280;52365;47.464;18.976;2022-10-16T00:38:24;100257.94;;;18.07;50.81
65666;BME280;52365;47.464;18.976;2022-10-16T00:39:00;100265.13;;;18.10;51.00
65666;BME280;52365;47.464;18.976;2022-10-16T00:39:36;100267.34;;;18.06;50.97
65666;BME280;52365;47.464;18.976;2022-10-16T00:40:13;100256.94;;;18.04;50.83
65666;BME280;52365;47.464;18.976;2022-10-16T00:40:49;100267.09;;;17.98;51.03
65666;BME280;52365;47.464;18.976;2022-10-16T00:41:25;100261.13;;;18.00;51.39
65666;BME280;52365;47.464;18.976;2022-10-16T00:42:02;100262.88;;;18.03;51.82
65666;BME280;52365;47.464;18.976;2022-10-16T00:42:38;100258.66;;;17.96;52.23
65666;BME280;52365;47.464;18.976;2022-10-16T00:43:37;100259.69;;;18.04;52.26
65666;BME280;52365;47.464;18.976;2022-10-16T00:45:18;100260.16;;;17.97;51.77
65666;BME280;52365;47.464;18.976;2022-10-16T00:45:54;100264.34;;;17.93;52.03
65666;BME280;52365;47.464;18.976;2022-10-16T00:46:41;100257.63;;;17.82;51.61
65666;BME280;52365;47.464;18.976;2022-10-16T00:47:30;100270.91;;;17.63;52.09
65666;BME280;52365;47.464;18.976;2022-10-16T00:48:11;100259.09;;;17.29;52.24
65666;BME280;52365;47.464;18.976;2022-10-16T00:49:01;100263.22;;;17.08;53.13
65666;BME280;52365;47.464;18.976;2022-10-16T00:49:38;100257.78;;;17.14;53.18
65666;BME280;52365;47.464;18.976;2022-10-16T00:50:33;100263.59;;;17.38;52.21
65666;BME280;52365;47.464;18.976;2022-10-16T00:51:10;100263.47;;;17.64;51.49
65666;BME280;52365;47.464;18.976;2022-10-16T00:51:52;100263.97;;;17.62;51.71
65666;BME280;52365;47.464;18.976;2022-10-16T00:52:29;100257.78;;;17.68;51.75
65666;BME280;52365;47.464;18.976;2022-10-16T00:53:06;100260.19;;;17.49;51.61
65666;BME280;52365;47.464;18.976;2022-10-16T00:53:44;100259.16;;;17.41;52.06
65666;BME280;52365;47.464;18.976;2022-10-16T00:54:29;100260.50;;;17.62;51.72
65666;BME280;52365;47.464;18.976;2022-10-16T00:55:06;100258.06;;;17.70;51.41
65666;BME280;52365;47.464;18.976;2022-10-16T00:55:44;100267.25;;;17.78;51.24
65666;BME280;52365;47.464;18.976;2022-10-16T00:56:21;100272.00;;;17.83;51.19
65666;BME280;52365;47.464;18.976;2022-10-16T00:57:00;100273.22;;;17.76;51.37
65666;BME280;52365;47.464;18.976;2022-10-16T00:57:37;100270.75;;;17.84;51.70
65666;BME280;52365;47.464;18.976;2022-10-16T00:58:14;100272.53;;;17.87;51.99
65666;BME280;52365;47.464;18.976;2022-10-16T00:58:50;100281.91;;;17.86;52.41
65666;BME280;52365;47.464;18.976;2022-10-16T01:00:09;100277.87;;;17.70;52.37
65666;BME280;52365;47.464;18.976;2022-10-16T01:00:46;100277.19;;;17.81;52.09
65666;BME280;52365;47.464;18.976;2022-10-16T01:01:22;100276.88;;;17.68;52.15
65666;BME280;52365;47.464;18.976;2022-10-16T01:01:59;100274.41;;;17.70;52.70
65666;BME280;52365;47.464;18.976;2022-10-16T01:02:36;100283.28;;;17.65;53.18
65666;BME280;52365;47.464;18.976;2022-10-16T01:03:28;100280.09;;;17.72;53.03
65666;BME280;52365;47.464;18.976;2022-10-16T01:04:05;100286.06;;;17.70;53.12
65666;BME280;52365;47.464;18.976;2022-10-16T01:04:44;100281.84;;;17.69;53.19
65666;BME280;52365;47.464;18.976;2022-10-16T01:05:23;100282.59;;;17.70;53.38
65666;BME280;52365;47.464;18.976;2022-10-16T01:06:49;100288.28;;;17.66;53.60
65666;BME280;52365;47.464;18.976;2022-10-16T01:07:50;100274.81;;;17.51;53.61
65666;BME280;52365;47.464;18.976;2022-10-16T01:10:45;100283.75;;;17.09;53.90
65666;BME280;52365;47.464;18.976;2022-10-16T01:11:57;100291.13;;;17.03;54.03
65666;BME280;52365;47.464;18.976;2022-10-16T01:13:00;100280.34;;;17.20;53.56
65666;BME280;52365;47.464;18.976;2022-10-16T01:13:41;100285.84;;;17.25;53.61
65666;BME280;52365;47.464;18.976;2022-10-16T01:15:30;100288.16;;;17.01;53.54
65666;BME280;52365;47.464;18.976;2022-10-16T01:16:24;100285.16;;;16.99;54.00
65666;BME280;52365;47.464;18.976;2022-10-16T01:17:15;100286.47;;;17.09;54.32
65666;BME280;52365;47.464;18.976;2022-10-16T01:18:54;100281.78;;;17.09;54.37
65666;BME280;52365;47.464;18.976;2022-10-16T01:20:20;100291.94;;;17.09;54.81
65666;BME280;52365;47.464;18.976;2022-10-16T01:21:02;100289.97;;;17.15;54.22
65666;BME280;52365;47.464;18.976;2022-10-16T01:21:42;100297.41;;;17.15;54.12
65666;BME280;52365;47.464;18.976;2022-10-16T01:22:21;100291.47;;;17.16;54.55
65666;BME280;52365;47.464;18.976;2022-10-16T01:25:00;100286.72;;;17.11;54.80
65666;BME280;52365;47.464;18.976;2022-10-16T01:25:54;100298.63;;;17.14;55.03
65666;BME280;52365;47.464;18.976;2022-10-16T01:26:57;100293.91;;;17.08;54.91
65666;BME280;52365;47.464;18.976;2022-10-16T01:27:36;100295.63;;;17.06;54.95
65666;BME280;52365;47.464;18.976;2022-10-16T01:28:15;100293.16;;;17.08;54.85
65666;BME280;52365;47.464;18.976;2022-10-16T01:29:09;100299.97;;;16.92;55.66
65666;BME280;52365;47.464;18.976;2022-10-16T01:30:09;100296.41;;;16.80;56.51
65666;BME280;52365;47.464;18.976;2022-10-16T01:30:46;100297.25;;;16.66;56.96
65666;BME280;52365;47.464;18.976;2022-10-16T01:31:27;100301.69;;;16.90;56.15
65666;BME280;52365;47.464;18.976;2022-10-16T01:32:13;100303.12;;;16.85;56.06
65666;BME280;52365;47.464;18.976;2022-10-16T01:33:02;100302.66;;;16.86;55.86
65666;BME280;52365;47.464;18.976;2022-10-16T01:33:56;100298.66;;;16.82;55.57
65666;BME280;52365;47.464;18.976;2022-10-16T01:35:54;100300.19;;;16.89;54.98
65666;BME280;52365;47.464;18.976;2022-10-16T01:36:44;100292.72;;;16.83;55.89
65666;BME280;52365;47.464;18.976;2022-10-16T01:38:56;100296.94;;;16.84;55.82
65666;BME280;52365;47.464;18.976;2022-10-16T01:39:38;100292.69;;;16.78;55.81
65666;BME280;52365;47.464;18.976;2022-10-16T01:40:17;100293.84;;;16.71;55.75
65666;BME280;52365;47.464;18.976;2022-10-16T01:41:00;100292.91;;;16.48;55.96
65666;BME280;52365;47.464;18.976;2022-10-16T01:41:40;100290.56;;;16.35;56.35
65666;BME280;52365;47.464;18.976;2022-10-16T01:42:24;100295.66;;;16.54;55.90
65666;BME280;52365;47.464;18.976;2022-10-16T01:43:09;100294.97;;;16.59;55.86
65666;BME280;52365;47.464;18.976;2022-10-16T01:43:56;100295.03;;;16.65;55.43
65666;BME280;52365;47.464;18.976;2022-10-16T01:44:37;100294.87;;;16.48;56.24
65666;BME280;52365;47.464;18.976;2022-10-16T01:45:15;100298.72;;;16.35;56.77
65666;BME280;52365;47.464;18.976;2022-10-16T01:45:54;100299.09;;;16.23;57.10
65666;BME280;52365;47.464;18.976;2022-10-16T01:46:31;100299.25;;;16.40;56.84
65666;BME280;52365;47.464;18.976;2022-10-16T01:47:10;100299.75;;;16.38;56.71
65666;BME280;52365;47.464;18.976;2022-10-16T01:47:49;100304.84;;;16.30;56.89
65666;BME280;52365;47.464;18.976;2022-10-16T01:48:26;100308.22;;;16.46;56.52
65666;BME280;52365;47.464;18.976;2022-10-16T01:49:03;100299.41;;;16.56;56.33
65666;BME280;52365;47.464;18.976;2022-10-16T01:49:40;100300.84;;;16.52;56.43
65666;BME280;52365;47.464;18.976;2022-10-16T01:50:18;100298.37;;;16.54;56.37
65666;BME280;52365;47.464;18.976;2022-10-16T01:51:09;100307.00;;;16.47;56.47
65666;BME280;52365;47.464;18.976;2022-10-16T01:51:49;100300.75;;;16.41;56.54
65666;BME280;52365;47.464;18.976;2022-10-16T01:52:28;100301.44;;;16.35;56.52
65666;BME280;52365;47.464;18.976;2022-10-16T01:53:07;100302.88;;;16.31;56.35
65666;BME280;52365;47.464;18.976;2022-10-16T01:53:53;100302.28;;;16.21;56.56
65666;BME280;52365;47.464;18.976;2022-10-16T01:54:31;100310.28;;;16.30;56.83
65666;BME280;52365;47.464;18.976;2022-10-16T01:55:10;100309.66;;;16.41;56.71
65666;BME280;52365;47.464;18.976;2022-10-16T01:55:48;100303.00;;;16.42;56.53
65666;BME280;52365;47.464;18.976;2022-10-16T01:56:25;100308.06;;;16.29;57.04
65666;BME280;52365;47.464;18.976;2022-10-16T01:57:04;100301.28;;;16.19;57.25
65666;BME280;52365;47.464;18.976;2022-10-16T01:57:45;100309.53;;;16.04;57.47
65666;BME280;52365;47.464;18.976;2022-10-16T01:58:23;100310.59;;;16.12;57.26
65666;BME280;52365;47.464;18.976;2022-10-16T01:59:04;100312.50;;;16.06;56.87
65666;BME280;52365;47.464;18.976;2022-10-16T01:59:44;100311.09;;;15.90;57.16
65666;BME280;52365;47.464;18.976;2022-10-16T02:00:23;100317.41;;;16.02;56.92
65666;BME280;52365;47.464;18.976;2022-10-16T02:01:01;100313.97;;;16.27;56.04
65666;BME280;52365;47.464;18.976;2022-10-16T02:01:40;100308.31;;;16.31;55.87
65666;BME280;52365;47.464;18.976;2022-10-16T02:02:19;100321.03;;;16.40;55.84
65666;BME280;52365;47.464;18.976;2022-10-16T02:02:57;100316.72;;;16.33;55.89
65666;BME280;52365;47.464;18.976;2022-10-16T02:03:36;100312.38;;;16.41;55.70
65666;BME280;52365;47.464;18.976;2022-10-16T02:05:16;100317.66;;;16.24;56.41
65666;BME280;52365;47.464;18.976;2022-10-16T02:05:56;100323.22;;;16.15;56.82
65666;BME280;52365;47.464;18.976;2022-10-16T02:06:33;100322.66;;;16.31;56.38
65666;BME280;52365;47.464;18.976;2022-10-16T02:07:10;100318.94;;;16.29;56.32
65666;BME280;52365;47.464;18.976;2022-10-16T02:07:47;100314.87;;;16.19;57.09
65666;BME280;52365;47.464;18.976;2022-10-16T02:08:26;100325.94;;;16.15;57.08
65666;BME280;52365;47.464;18.976;2022-10-16T02:09:03;100320.84;;;16.23;57.00
65666;BME280;52365;47.464;18.976;2022-10-16T02:09:40;100315.59;;;16.19;57.27
65666;BME280;52365;47.464;18.976;2022-10-16T02:10:16;100316.69;;;16.27;56.67
65666;BME280;52365;47.464;18.976;2022-10-16T02:10:55;100317.97;;;16.32;56.11
65666;BME280;52365;47.464;18.976;2022-10-16T02:11:31;100318.06;;;16.17;56.47
65666;BME280;52365;47.464;18.976;2022-10-16T02:12:28;100323.50;;;16.17;56.77
65666;BME280;52365;47.464;18.976;2022-10-16T02:13:10;100314.53;;;16.11;56.79
65666;BME280;52365;47.464;18.976;2022-10-16T02:13:52;100318.06;;;16.17;56.73
65666;BME280;52365;47.464;18.976;2022-10-16T02:14:29;100319.03;;;16.14;56.12
65666;BME280;52365;47.464;18.976;2022-10-16T02:15:06;100322.03;;;15.96;55.32
65666;BME280;52365;47.464;18.976;2022-10-16T02:15:42;100314.63;;;15.96;55.50
65666;BME280;52365;47.464;18.976;2022-10-16T02:16:18;100317.12;;;16.00;55.81
65666;BME280;52365;47.464;18.976;2022-10-16T02:16:54;100321.41;;;16.06;56.54
65666;BME280;52365;47.464;18.976;2022-10-16T02:17:32;100320.66;;;16.06;56.78
65666;BME280;52365;47.464;18.976;2022-10-16T02:18:09;100318.47;;;16.10;56.73
65666;BME280;52365;47.464;18.976;2022-10-16T02:18:46;100321.53;;;15.97;56.63
65666;BME280;52365;47.464;18.976;2022-10-16T02:19:22;100317.09;;;15.94;56.80
65666;BME280;52365;47.464;18.976;2022-10-16T02:19:59;100318.28;;;16.14;56.35
65666;BME280;52365;47.464;18.976;2022-10-16T02:21:08;100316.34;;;16.20;55.99
65666;BME280;52365;47.464;18.976;2022-10-16T02:21:59;100320.91;;;16.28;55.70
65666;BME280;52365;47.464;18.976;2022-10-16T02:22:43;100318.16;;;16.28;55.91
65666;BME280;52365;47.464;18.976;2022-10-16T02:23:36;100321.28;;;15.95;56.54
65666;BME280;52365;47.464;18.976;2022-10-16T02:24:39;100315.69;;;15.64;56.88
65666;BME280;52365;47.464;18.976;2022-10-16T02:26:03;100316.84;;;15.98;56.63
65666;BME280;52365;47.464;18.976;2022-10-16T02:26:57;100318.37;;;15.99;56.82
65666;BME280;52365;47.464;18.976;2022-10-16T02:28:06;100313.88;;;15.96;56.79
65666;BME280;52365;47.464;18.976;2022-10-16T02:28:48;100323.53;;;15.97;56.68
65666;BME280;52365;47.464;18.976;2022-10-16T02:29:26;100318.47;;;16.10;56.13
65666;BME280;52365;47.464;18.976;2022-10-16T02:30:33;100316.78;;;16.12;56.08
65666;BME280;52365;47.464;18.976;2022-10-16T02:31:12;100313.47;;;16.03;57.09
65666;BME280;52365;47.464;18.976;2022-10-16T02:31:55;100320.41;;;16.04;56.81
65666;BME280;52365;47.464;18.976;2022-10-16T02:32:34;100318.09;;;15.76;57.32
65666;BME280;52365;47.464;18.976;2022-10-16T02:33:13;100313.00;;;15.84;57.10
65666;BME280;52365;47.464;18.976;2022-10-16T02:33:50;100316.72;;;15.86;56.81
65666;BME280;52365;47.464;18.976;2022-10-16T02:34:30;100318.63;;;16.01;56.45
65666;BME280;52365;47.464;18.976;2022-10-16T02:35:08;100319.16;;;16.05;56.21
65666;BME280;52365;47.464;18.976;2022-10-16T02:35:46;100325.69;;;15.93;56.42
65666;BME280;52365;47.464;18.976;2022-10-16T02:36:25;100323.25;;;15.95;56.51
65666;BME280;52365;47.464;18.976;2022-10-16T02:37:01;100321.78;;;15.94;56.71
65666;BME280;52365;47.464;18.976;2022-10-16T02:37:40;100323.06;;;15.98;56.65
65666;BME280;52365;47.464;18.976;2022-10-16T02:38:18;100324.19;;;15.92;57.31
65666;BME280;52365;47.464;18.976;2022-10-16T02:38:56;100325.50;;;15.96;57.23
65666;BME280;52365;47.464;18.976;2022-10-16T02:39:33;100316.66;;;16.01;56.97
65666;BME280;52365;47.464;18.976;2022-10-16T02:40:10;100322.44;;;16.09;56.83
65666;BME280;52365;47.464;18.976;2022-10-16T02:40:46;100321.59;;;16.23;56.45
65666;BME280;52365;47.464;18.976;2022-10-16T02:41:23;100329.72;;;15.77;57.50
65666;BME280;52365;47.464;18.976;2022-10-16T02:42:00;100318.91;;;15.12;59.78
65666;BME280;52365;47.464;18.976;2022-10-16T02:42:38;100331.22;;;14.63;61.17
65666;BME280;52365;47.464;18.976;2022-10-16T02:43:16;100322.72;;;14.31;62.52
65666;BME280;52365;47.464;18.976;2022-10-16T02:43:52;100327.38;;;14.31;63.06
65666;BME280;52365;47.464;18.976;2022-10-16T02:44:28;100326.84;;;14.27;63.24
65666;BME280;52365;47.464;18.976;2022-10-16T02:45:05;100332.44;;;14.23;63.14
65666;BME280;52365;47.464;18.976;2022-10-16T02:45:42;100329.06;;;14.28;63.03
65666;BME280;52365;47.464;18.976;2022-10-16T02:46:18;100332.44;;;14.23;63.21
65666;BME280;52365;47.464;18.976;2022-10-16T02:46:54;100329.06;;;14.14;63.11
65666;BME280;52365;47.464;18.976;2022-10-16T02:47:30;100324.38;;;14.14;63.03
65666;BME280;52365;47.464;18.976;2022-10-16T02:48:07;100334.09;;;14.21;63.21
65666;BME280;52365;47.464;18.976;2022-10-16T02:48:43;100316.88;;;14.09;63.30
65666;BME280;52365;47.464;18.976;2022-10-16T02:49:19;100322.13;;;14.13;63.12
65666;BME280;52365;47.464;18.976;2022-10-16T02:49:55;100326.59;;;14.01;62.84
65666;BME280;52365;47.464;18.976;2022-10-16T02:50:31;100323.06;;;14.09;62.98
65666;BME280;52365;47.464;18.976;2022-10-16T02:51:07;100325.56;;;14.13;62.42
65666;BME280;52365;47.464;18.976;2022-10-16T02:51:43;100318.47;;;14.16;62.26
65666;BME280;52365;47.464;18.976;2022-10-16T02:52:19;100325.00;;;14.09;62.49
65666;BME280;52365;47.464;18.976;2022-10-16T02:52:55;100330.88;;;14.07;63.13
65666;BME280;52365;47.464;18.976;2022-10-16T02:53:31;100327.53;;;14.13;63.02
65666;BME280;52365;47.464;18.976;2022-10-16T02:54:07;100335.59;;;14.22;62.88
65666;BME280;52365;47.464;18.976;2022-10-16T02:54:43;100330.81;;;14.17;63.25
65666;BME280;52365;47.464;18.976;2022-10-16T02:55:19;100334.06;;;14.06;63.73
65666;BME280;52365;47.464;18.976;2022-10-16T02:55:55;100335.63;;;13.98;63.80
65666;BME280;52365;47.464;18.976;2022-10-16T02:56:31;100326.84;;;14.03;63.82
65666;BME280;52365;47.464;18.976;2022-10-16T02:57:07;100334.06;;;14.06;63.69
65666;BME280;52365;47.464;18.976;2022-10-16T02:57:43;100336.59;;;14.09;63.72
65666;BME280;52365;47.464;18.976;2022-10-16T02:58:19;100333.50;;;14.02;63.98
65666;BME280;52365;47.464;18.976;2022-10-16T02:58:56;100338.00;;;14.05;64.15
65666;BME280;52365;47.464;18.976;2022-10-16T02:59:32;100341.16;;;14.03;63.92
65666;BME280;52365;47.464;18.976;2022-10-16T03:00:09;100333.59;;;14.07;63.81
65666;BME280;52365;47.464;18.976;2022-10-16T03:00:47;100332.94;;;14.13;63.90
65666;BME280;52365;47.464;18.976;2022-10-16T03:01:23;100334.66;;;14.10;63.53
65666;BME280;52365;47.464;18.976;2022-10-16T03:01:59;100326.69;;;14.06;63.49
65666;BME280;52365;47.464;18.976;2022-10-16T03:02:35;100333.59;;;14.07;63.67
65666;BME280;52365;47.464;18.976;2022-10-16T03:03:11;100336.88;;;14.11;63.45
65666;BME280;52365;47.464;18.976;2022-10-16T03:03:47;100337.28;;;14.19;63.05
65666;BME280;52365;47.464;18.976;2022-10-16T03:04:23;100339.91;;;14.14;62.78
65666;BME280;52365;47.464;18.976;2022-10-16T03:04:59;100338.44;;;14.27;62.66
65666;BME280;52365;47.464;18.976;2022-10-16T03:05:35;100331.13;;;14.19;62.81
65666;BME280;52365;47.464;18.976;2022-10-16T03:06:11;100332.69;;;14.10;62.93
65666;BME280;52365;47.464;18.976;2022-10-16T03:06:47;100328.66;;;14.06;63.11
65666;BME280;52365;47.464;18.976;2022-10-16T03:07:23;100332.75;;;14.01;63.09
65666;BME280;52365;47.464;18.976;2022-10-16T03:07:59;100335.87;;;13.85;63.54
65666;BME280;52365;47.464;18.976;2022-10-16T03:08:39;100336.84;;;13.97;63.32
65666;BME280;52365;47.464;18.976;2022-10-16T03:09:15;100334.41;;;13.99;63.03
65666;BME280;52365;47.464;18.976;2022-10-16T03:09:51;100332.00;;;14.01;62.60
65666;BME280;52365;47.464;18.976;2022-10-16T03:10:27;100336.03;;;14.05;62.54
65666;BME280;52365;47.464;18.976;2022-10-16T03:11:03;100339.94;;;14.04;62.30
65666;BME280;52365;47.464;18.976;2022-10-16T03:11:39;100339.56;;;13.97;62.08
65666;BME280;52365;47.464;18.976;2022-10-16T03:12:15;100339.09;;;13.98;62.11
65666;BME280;52365;47.464;18.976;2022-10-16T03:12:51;100335.00;;;14.03;62.13
65666;BME280;52365;47.464;18.976;2022-10-16T03:13:28;100337.44;;;14.01;62.79
65666;BME280;52365;47.464;18.976;2022-10-16T03:14:04;100336.13;;;14.11;62.54
65666;BME280;52365;47.464;18.976;2022-10-16T03:14:40;100337.62;;;14.12;62.60
65666;BME280;52365;47.464;18.976;2022-10-16T03:15:16;100339.69;;;14.17;62.45
65666;BME280;52365;47.464;18.976;2022-10-16T03:15:52;100340.06;;;14.10;62.59
65666;BME280;52365;47.464;18.976;2022-10-16T03:16:28;100338.53;;;14.09;62.67
65666;BME280;52365;47.464;18.976;2022-10-16T03:17:04;100340.59;;;13.99;62.72
65666;BME280;52365;47.464;18.976;2022-10-16T03:17:40;100337.06;;;14.08;62.36
65666;BME280;52365;47.464;18.976;2022-10-16T03:18:16;100335.22;;;14.14;62.12
65666;BME280;52365;47.464;18.976;2022-10-16T03:18:52;100340.62;;;14.14;62.50
65666;BME280;52365;47.464;18.976;2022-10-16T03:19:28;100338.19;;;14.16;62.37
65666;BME280;52365;47.464;18.976;2022-10-16T03:20:04;100336.13;;;14.11;62.25
65666;BME280;52365;47.464;18.976;2022-10-16T03:20:42;100331.81;;;14.04;62.52
65666;BME280;52365;47.464;18.976;2022-10-16T03:21:19;100342.47;;;14.08;62.42
65666;BME280;52365;47.464;18.976;2022-10-16T03:21:55;100349.53;;;13.91;63.30
65666;BME280;52365;47.464;18.976;2022-10-16T03:22:31;100343.94;;;13.94;63.45
65666;BME280;52365;47.464;18.976;2022-10-16T03:23:07;100337.59;;;13.97;63.43
65666;BME280;52365;47.464;18.976;2022-10-16T03:23:43;100337.69;;;14.03;62.90
65666;BME280;52365;47.464;18.976;2022-10-16T03:24:19;100338.28;;;13.83;63.03
65666;BME280;52365;47.464;18.976;2022-10-16T03:24:56;100348.31;;;13.92;62.99
65666;BME280;52365;47.464;18.976;2022-10-16T03:25:32;100347.22;;;13.98;62.83
65666;BME280;52365;47.464;18.976;2022-10-16T03:26:08;100345.72;;;13.97;62.60
65666;BME280;52365;47.464;18.976;2022-10-16T03:26:44;100346.56;;;14.03;62.41
65666;BME280;52365;47.464;18.976;2022-10-16T03:27:20;100357.00;;;13.96;62.77
65666;BME280;52365;47.464;18.976;2022-10-16T03:27:56;100349.81;;;13.93;63.19
65666;BME280;52365;47.464;18.976;2022-10-16T03:28:32;100355.06;;;13.96;63.34
65666;BME280;52365;47.464;18.976;2022-10-16T03:29:08;100352.53;;;13.93;63.15
65666;BME280;52365;47.464;18.976;2022-10-16T03:29:44;100356.00;;;13.93;63.07
65666;BME280;52365;47.464;18.976;2022-10-16T03:30:20;100344.91;;;14.06;62.58
65666;BME280;52365;47.464;18.976;2022-10-16T03:30:56;100352.37;;;13.96;62.69
65666;BME280;52365;47.464;18.976;2022-10-16T03:31:32;100357.66;;;13.91;62.96
65666;BME280;52365;47.464;18.976;2022-10-16T03:32:08;100348.94;;;13.86;63.24
65666;BME280;52365;47.464;18.976;2022-10-16T03:32:45;100355.00;;;14.05;62.95
65666;BME280;52365;47.464;18.976;2022-10-16T03:33:21;100356.41;;;14.01;63.02
65666;BME280;52365;47.464;18.976;2022-10-16T03:33:57;100357.47;;;13.94;63.10
65666;BME280;52365;47.464;18.976;2022-10-16T03:34:33;100355.06;;;13.96;63.09
65666;BME280;52365;47.464;18.976;2022-10-16T03:35:09;100354.78;;;13.94;63.00
65666;BME280;52365;47.464;18.976;2022-10-16T03:35:51;100357.78;;;13.96;63.10
65666;BME280;52365;47.464;18.976;2022-10-16T03:36:28;100353.31;;;14.08;62.79